SÍGUENOS

APP INUMET

Disponible en Google Play

Productos aeronáuticos

  • SIGMET
  • METAR / SPECI
  • TAF
  • AIREP
  • Aviso de aeródromo
  • Pronárea
  • Carta superficie

Mensajes METAR de la última hora

SULS 190400Z 03008KT 350V090 CAVOK 25/21 Q1005
SUMU 190400Z 03008KT CAVOK 26/18 Q1004 NOSIG

Mensajes METAR de la última hora - Internacionales


Argentina
SAAR 190400Z 34003KT CAVOK 25/21 Q1003
SABE 190400Z 30004KT CAVOK 27/17 Q1003
SACO 190400Z 34004KT 9999 FEW040CB 21/18 Q1005
SAEZ 190400Z 02005KT CAVOK 26/18 Q1002
SAME 190400Z 27004KT 9999 FEW040 FEW050CB 23/11 Q1007
Bolivia
SLLP 190400Z VRB02KT 9999 FEW008 FEW017CB BKN200 06/05 Q1034
Brasil
SBBR 190400Z 00000KT 9999 FEW003 SCT070 19/17 Q1017
SBFI 190400Z 08005KT 7000 -RA BKN010 OVC080 22/21 Q1008 RERA
SBFL 190400Z 03002KT 9999 SCT025 24/20 Q1011
SBGR 190400Z 07003KT CAVOK 19/19 Q1014
SBPA 190400Z 10006KT CAVOK 22/20 Q1008
SBRJ 190400Z 03004KT 9999 FEW020 BKN100 25/24 Q1011
SBSP 190400Z AUTO 06005KT 020V100 CAVOK 20/16 Q1015
Chile
SCCI 190400Z 25022KT 9999 SCT040 09/03 Q0996 NOSIG
SCEL 190400Z 15007KT CAVOK 18/14 Q1014 NOSIG
Ecuador
SEQM 190400Z 03002KT 6000 RA BKN005 OVC020 13/13 Q1026 TEMPO 8000 RMK A3032
EEUU
KMIA 190353Z 09009KT 10SM FEW030 24/18 A3024 RMK AO2 SLP240 T02390183 $
KDCA 190352Z 15004KT 10SM BKN250 05/00 A3050 RMK AO2 SLP328 T00500000
KIAD 190352Z 16004KT 10SM BKN046 03/M01 A3047 RMK AO2 SLP322 T00331006
KJFK 190351Z 00000KT 10SM FEW250 01/M04 A3054 RMK AO2 SLP340 T00111039
KLGA 190351Z 07004KT 10SM FEW250 03/M04 A3052 RMK AO2 SLP334 T00331044 $
Francia
LFPO 190400Z 10003KT 6000 NSC M00/M01 Q1020 TEMPO 2500 BR
LFPO 190330Z 11003KT 6000 SCT035 BKN210 M00/M01 Q1021 TEMPO 2500 BR
Venezuela
SVMI 190400Z 05002KT 9999 FEW016 24/22 Q1014

* Datos extraidos del Text DataServer de la NOAA (NOAA TEXT DATA SERVER)

Instituto Uruguayo de Meteorología

Dr. Javier Barrios Amorín 1488 - CP 11200
Mesa Central (598) 1895 - Desde el interior 21895

Montevideo - Uruguay